Time;durP1;ratioP1;P1;durP2;ratioP2;P2;SDS_P1;SDS_P2;PMS_P1;PMS_P2;Temp;Humidity;BMP_temperature;BMP_pressure;BME280_temperature;BME280_humidity;BME280_pressure;Samples;Min_cycle;Max_cycle;Signal;HPM_P1;HPM_P2
2023/03/28 00:01:04;;;;;;;19.42;18.33;;;;;;;;;;4997031;28;20300;-85
2023/03/28 00:03:34;;;;;;;20.25;19.00;;;;;;;;;;4997357;28;20215;-85
2023/03/28 00:06:01;;;;;;;21.20;19.60;;;;;;;;;;4995283;28;20210;-85
2023/03/28 00:08:29;;;;;;;19.70;18.48;;;;;;;;;;4995774;28;20633;-85
2023/03/28 00:11:02;;;;;;;19.70;18.52;;;;;;;;;;4995985;28;20208;-85
2023/03/28 00:13:31;;;;;;;19.88;18.67;;;;;;;;;;4995626;28;20296;-85
2023/03/28 00:16:02;;;;;;;19.98;18.63;;;;;;;;;;4996010;28;20221;-85
2023/03/28 00:18:30;;;;;;;20.05;18.25;;;;;;;;;;4996370;28;20225;-85
2023/03/28 00:20:57;;;;;;;21.17;19.88;;;;;;;;;;4997581;28;20239;-85
2023/03/28 00:23:26;;;;;;;20.40;19.15;;;;;;;;;;4995972;28;20214;-85
2023/03/28 00:25:55;;;;;;;21.33;19.63;;;;;;;;;;4995477;28;20264;-85
2023/03/28 00:28:22;;;;;;;20.83;19.38;;;;;;;;;;4996121;28;20237;-85
2023/03/28 00:30:50;;;;;;;20.10;18.80;;;;;;;;;;4996404;28;20721;-85
2023/03/28 00:33:17;;;;;;;20.83;19.33;;;;;;;;;;4995815;28;20232;-85
2023/03/28 00:35:45;;;;;;;20.52;18.77;;;;;;;;;;4996122;28;20214;-84
2023/03/28 00:38:12;;;;;;;19.08;18.08;;;;;;;;;;4998518;28;20285;-85
2023/03/28 00:40:39;;;;;;;19.95;18.88;;;;;;;;;;4999841;28;20216;-84
2023/03/28 00:43:06;;;;;;;20.20;18.65;;;;;;;;;;4999967;28;20615;-85
2023/03/28 00:45:34;;;;;;;20.27;18.65;;;;;;;;;;4998945;28;20201;-84
2023/03/28 00:48:05;;;;;;;19.48;18.23;;;;;;;;;;4999914;28;20233;-85
2023/03/28 00:50:35;;;;;;;19.27;17.95;;;;;;;;;;4999909;28;20197;-85
2023/03/28 00:53:04;;;;;;;19.67;18.38;;;;;;;;;;4999897;28;20272;-85
2023/03/28 00:55:34;;;;;;;21.55;19.38;;;;;;;;;;4999374;28;20690;-85
2023/03/28 00:58:03;;;;;;;19.52;18.25;;;;;;;;;;4999848;28;20222;-85
2023/03/28 01:00:31;;;;;;;19.73;18.42;;;;;;;;;;4999466;28;20199;-85
2023/03/28 01:03:00;;;;;;;19.42;18.13;;;;;;;;;;5000054;28;20203;-85
2023/03/28 01:05:29;;;;;;;19.48;18.23;;;;;;;;;;4998711;28;20671;-85
2023/03/28 01:07:59;;;;;;;20.15;18.45;;;;;;;;;;5007230;28;20253;-85
2023/03/28 01:10:26;;;;;;;20.30;18.65;;;;;;;;;;5003921;28;20635;-85
2023/03/28 01:12:55;;;;;;;20.45;19.02;;;;;;;;;;4999644;28;20209;-85
2023/03/28 01:15:22;;;;;;;20.67;18.98;;;;;;;;;;4998646;28;20220;-85
2023/03/28 01:17:49;;;;;;;19.30;18.05;;;;;;;;;;4998935;28;20213;-85
2023/03/28 01:20:25;;;;;;;20.63;19.20;;;;;;;;;;4999457;28;20278;-85
2023/03/28 01:23:07;;;;;;;19.77;18.48;;;;;;;;;;4999476;28;20274;-84
2023/03/28 01:25:47;;;;;;;19.63;18.27;;;;;;;;;;4996272;28;20221;-85
2023/03/28 01:28:19;;;;;;;19.80;18.00;;;;;;;;;;5055147;23;20231;-84
2023/03/28 01:31:04;;;;;;;20.50;18.75;;;;;;;;;;5058426;28;20192;-84
2023/03/28 01:33:47;;;;;;;18.95;17.75;;;;;;;;;;5058790;28;20265;-84
2023/03/28 01:36:47;;;;;;;19.15;18.05;;;;;;;;;;5057695;28;20275;-84
2023/03/28 01:39:18;;;;;;;19.92;18.35;;;;;;;;;;5059036;28;20216;-84
2023/03/28 01:41:48;;;;;;;20.70;19.00;;;;;;;;;;5058309;28;20285;-84
2023/03/28 01:44:19;;;;;;;19.23;18.20;;;;;;;;;;5058724;28;20206;-84
2023/03/28 01:46:50;;;;;;;19.88;18.55;;;;;;;;;;5056567;28;20207;-84
2023/03/28 01:49:20;;;;;;;19.25;18.13;;;;;;;;;;5057367;28;20217;-84
2023/03/28 01:51:55;;;;;;;20.63;19.10;;;;;;;;;;5058939;28;20611;-84
2023/03/28 01:54:28;;;;;;;20.58;18.98;;;;;;;;;;5059584;28;20197;-85
2023/03/28 01:57:00;;;;;;;20.58;18.85;;;;;;;;;;5057098;28;20270;-84
2023/03/28 01:59:29;;;;;;;20.13;18.48;;;;;;;;;;5058915;28;20282;-84
2023/03/28 02:02:00;;;;;;;20.08;18.40;;;;;;;;;;5057560;28;20219;-84
2023/03/28 02:04:28;;;;;;;21.08;19.25;;;;;;;;;;5057847;28;20212;-85
2023/03/28 02:06:56;;;;;;;19.83;18.52;;;;;;;;;;5056316;28;20204;-84
2023/03/28 02:09:25;;;;;;;20.60;19.45;;;;;;;;;;5057207;28;20697;-85
2023/03/28 02:11:53;;;;;;;19.40;17.90;;;;;;;;;;5057455;28;20234;-85
2023/03/28 02:14:22;;;;;;;19.67;18.50;;;;;;;;;;5057212;28;20663;-85
2023/03/28 02:16:52;;;;;;;18.92;17.83;;;;;;;;;;5057123;28;20227;-85
2023/03/28 02:19:21;;;;;;;20.42;18.90;;;;;;;;;;5057611;28;20224;-84
2023/03/28 02:21:51;;;;;;;21.05;19.15;;;;;;;;;;5057778;28;20207;-85
2023/03/28 02:24:19;;;;;;;20.58;18.65;;;;;;;;;;5057443;28;20298;-85
2023/03/28 02:26:46;;;;;;;20.80;18.90;;;;;;;;;;5056704;28;20258;-85
2023/03/28 02:29:15;;;;;;;20.17;18.42;;;;;;;;;;5056580;28;20242;-86
2023/03/28 02:31:42;;;;;;;19.50;18.25;;;;;;;;;;5057103;28;20208;-85
2023/03/28 02:34:10;;;;;;;19.67;18.58;;;;;;;;;;5057749;28;20246;-85
2023/03/28 02:36:42;;;;;;;20.80;19.15;;;;;;;;;;5056089;28;20246;-85
2023/03/28 02:39:28;;;;;;;20.00;18.60;;;;;;;;;;5056493;28;20230;-85
2023/03/28 02:42:03;;;;;;;20.20;18.80;;;;;;;;;;5057389;28;20209;-85
2023/03/28 02:44:46;;;;;;;19.77;18.77;;;;;;;;;;5056774;28;20551;-85
2023/03/28 02:47:16;;;;;;;20.08;18.70;;;;;;;;;;5057163;28;20309;-85
2023/03/28 02:49:48;;;;;;;18.75;17.67;;;;;;;;;;5056435;28;20231;-85
2023/03/28 02:52:19;;;;;;;20.23;18.13;;;;;;;;;;5057820;28;20242;-85
2023/03/28 02:54:50;;;;;;;18.85;17.85;;;;;;;;;;5068824;28;20195;-86
2023/03/28 02:57:21;;;;;;;20.27;18.77;;;;;;;;;;5067809;28;20228;-86
2023/03/28 02:59:51;;;;;;;19.33;18.13;;;;;;;;;;5062433;28;20227;-86
2023/03/28 03:02:20;;;;;;;19.85;18.40;;;;;;;;;;5063370;28;20184;-86
2023/03/28 03:04:49;;;;;;;19.60;18.17;;;;;;;;;;5062666;28;20213;-86
2023/03/28 03:07:16;;;;;;;20.58;19.20;;;;;;;;;;5061964;28;20787;-86
2023/03/28 03:09:45;;;;;;;20.23;18.15;;;;;;;;;;5062260;28;20250;-86
2023/03/28 03:12:14;;;;;;;19.77;18.52;;;;;;;;;;5061318;28;20272;-86
2023/03/28 03:14:41;;;;;;;19.30;17.90;;;;;;;;;;5061785;28;20626;-86
2023/03/28 03:17:08;;;;;;;19.85;18.50;;;;;;;;;;5060896;28;20223;-86
2023/03/28 03:19:35;;;;;;;20.40;19.08;;;;;;;;;;5061371;28;20224;-86
2023/03/28 03:22:02;;;;;;;19.60;18.40;;;;;;;;;;5060168;28;20217;-86
2023/03/28 03:24:29;;;;;;;19.42;18.30;;;;;;;;;;5058789;28;20543;-85
2023/03/28 03:26:56;;;;;;;20.50;19.05;;;;;;;;;;5055917;28;20226;-86
2023/03/28 03:29:25;;;;;;;19.77;18.48;;;;;;;;;;5056025;28;20236;-85
2023/03/28 03:31:52;;;;;;;20.73;19.02;;;;;;;;;;5055471;28;20244;-85
2023/03/28 03:34:20;;;;;;;19.83;18.30;;;;;;;;;;5056262;28;20218;-85
2023/03/28 03:36:48;;;;;;;19.75;18.30;;;;;;;;;;5054798;28;20691;-86
2023/03/28 03:39:16;;;;;;;18.98;17.77;;;;;;;;;;5055445;28;20606;-85
2023/03/28 03:41:43;;;;;;;19.08;17.70;;;;;;;;;;5054664;28;20219;-85
2023/03/28 03:44:10;;;;;;;19.20;18.20;;;;;;;;;;5055521;28;20191;-85
2023/03/28 03:46:38;;;;;;;19.17;17.85;;;;;;;;;;5055178;28;20196;-85
2023/03/28 03:49:05;;;;;;;20.73;19.08;;;;;;;;;;5055199;28;20228;-85
2023/03/28 03:51:33;;;;;;;19.67;18.40;;;;;;;;;;5054807;28;20177;-85
2023/03/28 03:54:00;;;;;;;19.65;18.20;;;;;;;;;;5054542;28;20304;-86
2023/03/28 03:56:27;;;;;;;19.13;17.65;;;;;;;;;;5055156;28;20266;-86
2023/03/28 03:58:54;;;;;;;20.23;18.63;;;;;;;;;;5055897;28;20274;-85
2023/03/28 04:01:24;;;;;;;20.42;18.92;;;;;;;;;;5055558;28;20209;-85
2023/03/28 04:03:52;;;;;;;19.88;18.63;;;;;;;;;;5055103;28;20214;-85
2023/03/28 04:06:19;;;;;;;20.13;18.63;;;;;;;;;;5054664;28;20238;-85
2023/03/28 04:08:46;;;;;;;19.70;18.40;;;;;;;;;;5055718;28;20227;-85
2023/03/28 04:11:14;;;;;;;19.67;18.35;;;;;;;;;;5055958;28;20609;-85
2023/03/28 04:13:41;;;;;;;20.23;19.00;;;;;;;;;;5060425;28;20219;-85
2023/03/28 04:16:08;;;;;;;19.40;18.00;;;;;;;;;;5058847;28;20200;-85
2023/03/28 04:18:35;;;;;;;20.48;18.63;;;;;;;;;;5062210;28;20231;-85
2023/03/28 04:21:04;;;;;;;20.23;18.70;;;;;;;;;;5060002;28;20212;-85
2023/03/28 04:23:31;;;;;;;19.33;18.00;;;;;;;;;;5060854;28;20207;-85
2023/03/28 04:25:59;;;;;;;18.50;17.45;;;;;;;;;;5059299;28;20200;-85
2023/03/28 04:28:27;;;;;;;19.45;18.38;;;;;;;;;;5059433;28;20231;-85
2023/03/28 04:30:57;;;;;;;20.83;18.92;;;;;;;;;;5062827;28;20192;-85
2023/03/28 04:33:24;;;;;;;20.98;19.10;;;;;;;;;;5060720;28;20219;-85
2023/03/28 04:35:55;;;;;;;21.02;19.33;;;;;;;;;;5064266;28;21066;-85
2023/03/28 04:38:26;;;;;;;21.00;19.50;;;;;;;;;;5061015;28;20726;-86
2023/03/28 04:40:56;;;;;;;20.98;19.00;;;;;;;;;;5059509;28;20605;-85
2023/03/28 04:43:23;;;;;;;20.08;18.70;;;;;;;;;;5060406;28;20208;-85
2023/03/28 04:45:50;;;;;;;20.77;19.20;;;;;;;;;;5059613;28;20250;-85
2023/03/28 04:48:17;;;;;;;20.45;18.90;;;;;;;;;;5060357;28;20270;-85
2023/03/28 04:50:44;;;;;;;20.10;18.80;;;;;;;;;;5060215;28;20200;-85
2023/03/28 04:53:11;;;;;;;21.63;19.85;;;;;;;;;;5060615;28;20197;-85
2023/03/28 04:55:42;;;;;;;20.38;19.05;;;;;;;;;;5059338;28;20211;-85
2023/03/28 04:58:10;;;;;;;21.48;19.55;;;;;;;;;;5060076;28;20228;-85
2023/03/28 05:00:38;;;;;;;21.95;19.25;;;;;;;;;;5059462;28;20209;-85
2023/03/28 05:03:05;;;;;;;20.83;19.52;;;;;;;;;;5059631;28;20306;-85
2023/03/28 05:05:32;;;;;;;20.92;19.48;;;;;;;;;;5059248;28;20620;-86
2023/03/28 05:07:59;;;;;;;21.65;19.92;;;;;;;;;;5059394;28;20224;-85
2023/03/28 05:10:26;;;;;;;21.52;19.63;;;;;;;;;;5059308;28;20551;-81
2023/03/28 05:12:55;;;;;;;20.67;18.45;;;;;;;;;;5059063;28;20253;-81
2023/03/28 05:15:22;;;;;;;19.10;17.67;;;;;;;;;;5059379;28;20261;-81
2023/03/28 05:17:49;;;;;;;19.95;18.70;;;;;;;;;;5057788;28;20691;-81
2023/03/28 05:20:17;;;;;;;20.45;18.70;;;;;;;;;;5058660;28;20238;-81
2023/03/28 05:22:44;;;;;;;21.67;20.02;;;;;;;;;;5059448;28;20677;-81
2023/03/28 05:25:11;;;;;;;21.52;19.63;;;;;;;;;;5058765;28;20196;-81
2023/03/28 05:27:38;;;;;;;20.05;18.85;;;;;;;;;;5058447;28;20200;-81
2023/03/28 05:30:08;;;;;;;20.98;19.33;;;;;;;;;;5058778;28;20208;-81
2023/03/28 05:32:36;;;;;;;20.90;19.52;;;;;;;;;;5059763;28;20228;-81
2023/03/28 05:35:03;;;;;;;22.08;20.25;;;;;;;;;;5059249;28;20215;-81
2023/03/28 05:37:32;;;;;;;19.92;18.65;;;;;;;;;;5057900;28;20224;-81
2023/03/28 05:40:00;;;;;;;21.70;20.20;;;;;;;;;;5058573;28;20216;-81
2023/03/28 05:42:27;;;;;;;21.13;19.73;;;;;;;;;;5058683;28;20208;-81
2023/03/28 05:44:54;;;;;;;22.10;20.10;;;;;;;;;;5059065;28;20251;-81
2023/03/28 05:47:22;;;;;;;21.10;19.55;;;;;;;;;;5057959;28;20249;-81
2023/03/28 05:49:49;;;;;;;25.38;21.48;;;;;;;;;;5057258;28;20310;-81
2023/03/28 05:52:16;;;;;;;21.35;19.88;;;;;;;;;;5059200;28;20259;-81
2023/03/28 05:54:43;;;;;;;21.05;19.75;;;;;;;;;;5059384;28;20265;-81
2023/03/28 05:57:10;;;;;;;22.63;20.90;;;;;;;;;;5058036;28;20222;-81
2023/03/28 05:59:39;;;;;;;22.00;20.23;;;;;;;;;;5057860;28;20220;-81
2023/03/28 06:02:06;;;;;;;21.63;19.75;;;;;;;;;;5057937;28;20211;-81
2023/03/28 06:04:34;;;;;;;20.25;19.13;;;;;;;;;;5058968;28;20254;-81
2023/03/28 06:07:02;;;;;;;21.80;20.23;;;;;;;;;;5057524;28;20208;-81
2023/03/28 06:09:30;;;;;;;20.20;18.90;;;;;;;;;;5058330;28;20224;-82
2023/03/28 06:11:57;;;;;;;21.77;20.08;;;;;;;;;;5058105;28;20194;-81
2023/03/28 06:14:24;;;;;;;23.60;21.23;;;;;;;;;;5058317;28;20263;-81
2023/03/28 06:16:51;;;;;;;20.77;19.48;;;;;;;;;;5057754;28;20274;-81
2023/03/28 06:19:18;;;;;;;19.33;18.13;;;;;;;;;;5057538;28;20228;-81
2023/03/28 06:21:47;;;;;;;21.73;20.02;;;;;;;;;;5058613;28;20612;-81
2023/03/28 06:24:14;;;;;;;20.70;19.30;;;;;;;;;;5058277;28;20261;-81
2023/03/28 06:26:41;;;;;;;21.27;19.80;;;;;;;;;;5057861;28;20234;-81
2023/03/28 06:29:08;;;;;;;21.67;20.00;;;;;;;;;;5056972;28;20338;-81
2023/03/28 06:31:35;;;;;;;21.45;19.60;;;;;;;;;;5058509;28;20318;-82
2023/03/28 06:34:02;;;;;;;21.40;19.52;;;;;;;;;;5058428;28;20213;-81
2023/03/28 06:36:29;;;;;;;21.00;19.35;;;;;;;;;;5056609;28;20210;-81
2023/03/28 06:38:58;;;;;;;20.63;19.40;;;;;;;;;;5057348;28;20274;-81
2023/03/28 06:41:25;;;;;;;21.83;19.77;;;;;;;;;;5057348;28;20258;-81
2023/03/28 06:43:52;;;;;;;20.88;19.35;;;;;;;;;;5057164;28;20660;-81
2023/03/28 06:46:19;;;;;;;20.42;19.17;;;;;;;;;;5057181;28;20196;-81
2023/03/28 06:48:46;;;;;;;20.25;19.05;;;;;;;;;;5057119;28;20270;-81
2023/03/28 06:51:13;;;;;;;20.17;18.70;;;;;;;;;;5057610;28;20207;-81
2023/03/28 06:53:40;;;;;;;20.92;19.55;;;;;;;;;;5057832;28;20572;-81
2023/03/28 06:56:09;;;;;;;21.27;19.95;;;;;;;;;;5057783;28;20219;-81
2023/03/28 06:58:36;;;;;;;19.55;18.52;;;;;;;;;;5058809;28;20298;-81
2023/03/28 07:01:04;;;;;;;21.02;19.17;;;;;;;;;;5057839;28;20203;-81
2023/03/28 07:03:31;;;;;;;22.25;20.70;;;;;;;;;;5058764;28;20212;-81
2023/03/28 07:05:58;;;;;;;20.02;18.92;;;;;;;;;;5057174;28;20208;-81
2023/03/28 07:08:25;;;;;;;19.80;18.55;;;;;;;;;;5061754;28;20281;-81
2023/03/28 07:10:52;;;;;;;21.95;19.65;;;;;;;;;;5077953;28;20204;-81
2023/03/28 07:13:21;;;;;;;23.13;21.20;;;;;;;;;;5078452;28;20307;-81
2023/03/28 07:15:48;;;;;;;20.23;18.60;;;;;;;;;;5067629;28;20207;-82
2023/03/28 07:18:15;;;;;;;20.58;19.10;;;;;;;;;;5060840;28;20228;-82
2023/03/28 07:20:42;;;;;;;20.58;18.88;;;;;;;;;;5059462;28;20633;-81
2023/03/28 07:23:09;;;;;;;20.00;18.52;;;;;;;;;;5060503;28;20663;-82
2023/03/28 07:25:36;;;;;;;20.77;19.23;;;;;;;;;;5058685;28;20200;-81
2023/03/28 07:28:03;;;;;;;19.10;17.95;;;;;;;;;;5059811;28;20240;-82
2023/03/28 07:30:32;;;;;;;19.92;18.80;;;;;;;;;;5060472;28;20207;-82
2023/03/28 07:32:59;;;;;;;20.50;19.25;;;;;;;;;;5059126;28;20258;-81
2023/03/28 07:35:26;;;;;;;21.15;19.63;;;;;;;;;;5059233;28;20206;-81
2023/03/28 07:37:53;;;;;;;20.25;18.80;;;;;;;;;;5058470;28;20228;-81
2023/03/28 07:40:20;;;;;;;19.50;18.30;;;;;;;;;;5059398;28;20208;-82
2023/03/28 07:42:48;;;;;;;20.85;19.15;;;;;;;;;;5061223;28;20208;-82
2023/03/28 07:45:17;;;;;;;19.67;18.67;;;;;;;;;;5060667;28;20203;-82
2023/03/28 07:47:45;;;;;;;21.90;20.17;;;;;;;;;;5058773;28;20200;-81
2023/03/28 07:50:12;;;;;;;21.02;19.73;;;;;;;;;;5058936;28;20210;-81
2023/03/28 07:52:44;;;;;;;19.60;18.52;;;;;;;;;;5058344;28;20181;-82
2023/03/28 07:55:11;;;;;;;20.10;18.70;;;;;;;;;;5061047;28;20567;-81
2023/03/28 07:57:38;;;;;;;21.30;19.65;;;;;;;;;;5058027;28;20208;-82
2023/03/28 08:00:12;;;;;;;21.15;19.20;;;;;;;;;;5059182;28;20263;-84
2023/03/28 08:02:39;;;;;;;19.63;18.38;;;;;;;;;;5057417;28;20668;-82
2023/03/28 08:05:07;;;;;;;20.67;18.63;;;;;;;;;;5060954;28;20269;-82
2023/03/28 08:07:35;;;;;;;20.30;19.20;;;;;;;;;;5058144;28;20203;-82
2023/03/28 08:10:02;;;;;;;20.48;18.67;;;;;;;;;;5059359;28;20212;-81
2023/03/28 08:12:29;;;;;;;19.73;18.60;;;;;;;;;;5056653;28;20282;-81
2023/03/28 08:14:56;;;;;;;22.38;20.10;;;;;;;;;;5064696;28;20208;-82
2023/03/28 08:17:25;;;;;;;21.35;19.65;;;;;;;;;;5059544;28;20209;-82
2023/03/28 08:19:52;;;;;;;22.25;20.17;;;;;;;;;;5061013;28;20232;-81
2023/03/28 08:22:20;;;;;;;20.63;19.20;;;;;;;;;;5060550;28;20200;-81
2023/03/28 08:24:47;;;;;;;20.52;19.13;;;;;;;;;;5057886;28;20203;-81
2023/03/28 08:27:15;;;;;;;22.83;20.80;;;;;;;;;;5056637;28;20224;-81
2023/03/28 08:29:42;;;;;;;22.20;20.27;;;;;;;;;;5056008;28;20228;-81
2023/03/28 08:32:09;;;;;;;21.10;19.90;;;;;;;;;;5062243;28;20250;-81
2023/03/28 08:34:36;;;;;;;21.92;20.02;;;;;;;;;;5061607;28;20200;-81
2023/03/28 08:37:05;;;;;;;21.48;20.17;;;;;;;;;;5059359;28;20205;-80
2023/03/28 08:39:34;;;;;;;20.42;18.83;;;;;;;;;;5066094;28;20682;-81
2023/03/28 08:42:11;;;;;;;20.23;19.10;;;;;;;;;;5059202;28;20216;-81
2023/03/28 08:44:44;;;;;;;19.77;18.30;;;;;;;;;;5058860;28;20224;-81
2023/03/28 08:47:14;;;;;;;20.10;19.00;;;;;;;;;;5056835;28;20256;-81
2023/03/28 08:49:44;;;;;;;19.73;18.80;;;;;;;;;;5058976;28;20228;-81
2023/03/28 08:52:13;;;;;;;21.98;19.98;;;;;;;;;;5057618;28;20204;-80
2023/03/28 08:54:44;;;;;;;19.80;18.60;;;;;;;;;;5058847;28;20200;-81
2023/03/28 08:57:16;;;;;;;21.25;19.75;;;;;;;;;;5058357;28;20197;-81
2023/03/28 08:59:46;;;;;;;21.75;20.15;;;;;;;;;;5061449;28;20236;-81
2023/03/28 09:02:17;;;;;;;21.88;20.45;;;;;;;;;;5063354;28;20191;-81
2023/03/28 09:04:45;;;;;;;21.65;20.42;;;;;;;;;;5061603;28;20191;-81
2023/03/28 09:07:17;;;;;;;21.20;19.70;;;;;;;;;;5074022;28;20217;-81
2023/03/28 09:09:52;;;;;;;21.50;20.30;;;;;;;;;;5068124;28;20222;-82
2023/03/28 09:12:24;;;;;;;19.85;18.80;;;;;;;;;;5063952;28;20258;-81
2023/03/28 09:15:05;;;;;;;21.45;20.17;;;;;;;;;;5062300;28;20547;-82
2023/03/28 09:17:37;;;;;;;20.55;19.05;;;;;;;;;;5072020;28;20194;-82
2023/03/28 09:20:10;;;;;;;22.35;20.95;;;;;;;;;;5064860;28;20210;-81
2023/03/28 09:22:42;;;;;;;21.27;19.88;;;;;;;;;;5065336;28;20300;-81
2023/03/28 09:25:19;;;;;;;21.88;19.83;;;;;;;;;;5062904;28;20183;-85
2023/03/28 09:27:49;;;;;;;21.67;20.15;;;;;;;;;;5060549;28;20210;-81
2023/03/28 09:30:21;;;;;;;21.73;20.23;;;;;;;;;;5061786;28;20182;-82
2023/03/28 09:32:49;;;;;;;20.67;19.38;;;;;;;;;;5059989;28;20259;-82
2023/03/28 09:35:17;;;;;;;20.63;19.30;;;;;;;;;;5062271;28;20292;-82
2023/03/28 09:37:46;;;;;;;21.15;19.85;;;;;;;;;;5060591;28;20277;-82
2023/03/28 09:40:16;;;;;;;20.75;19.35;;;;;;;;;;5064574;28;20556;-82
2023/03/28 09:42:48;;;;;;;19.45;18.25;;;;;;;;;;5061618;28;20193;-81
2023/03/28 09:45:26;;;;;;;20.27;19.17;;;;;;;;;;5060929;28;20553;-82
2023/03/28 09:47:53;;;;;;;62.45;48.90;;;;;;;;;;5064727;28;20299;-82
2023/03/28 09:50:21;;;;;;;280.45;123.25;;;;;;;;;;5069040;28;20212;-81
2023/03/28 09:52:49;;;;;;;19.77;18.58;;;;;;;;;;5066767;28;20314;-81
2023/03/28 09:55:17;;;;;;;20.08;18.77;;;;;;;;;;5066555;28;20237;-81
2023/03/28 09:58:02;;;;;;;18.40;17.50;;;;;;;;;;5062022;28;20251;-81
2023/03/28 10:00:29;;;;;;;19.80;18.60;;;;;;;;;;5064283;28;20218;-82
2023/03/28 10:02:56;;;;;;;20.15;18.85;;;;;;;;;;5068863;28;20194;-82
2023/03/28 10:05:37;;;;;;;20.73;19.20;;;;;;;;;;5065410;28;20205;-82
2023/03/28 10:08:05;;;;;;;20.20;19.10;;;;;;;;;;5068497;28;20234;-82
2023/03/28 10:10:32;;;;;;;22.30;20.30;;;;;;;;;;5067319;28;20205;-82
2023/03/28 10:13:03;;;;;;;21.70;20.10;;;;;;;;;;5066776;28;20206;-81
2023/03/28 10:15:35;;;;;;;22.42;20.65;;;;;;;;;;5067777;28;20464;-82
2023/03/28 10:18:04;;;;;;;22.33;20.23;;;;;;;;;;5066465;28;20289;-82
2023/03/28 10:20:35;;;;;;;21.07;19.67;;;;;;;;;;5063879;28;20237;-81
2023/03/28 10:23:03;;;;;;;20.80;19.52;;;;;;;;;;5067248;28;20443;-82
2023/03/28 10:25:35;;;;;;;21.53;20.00;;;;;;;;;;5065100;28;20200;-81
2023/03/28 10:28:05;;;;;;;21.90;20.70;;;;;;;;;;5067291;28;20470;-82
2023/03/28 10:30:33;;;;;;;21.23;20.03;;;;;;;;;;5065002;28;20837;-82
2023/03/28 10:33:08;;;;;;;22.17;20.88;;;;;;;;;;5064957;28;20467;-81
2023/03/28 10:35:40;;;;;;;22.10;20.80;;;;;;;;;;5062324;28;20657;-82
2023/03/28 10:38:14;;;;;;;21.93;20.63;;;;;;;;;;5061464;28;20265;-82
2023/03/28 10:40:41;;;;;;;21.43;20.33;;;;;;;;;;5063207;28;21085;-81
2023/03/28 10:43:14;;;;;;;21.93;20.63;;;;;;;;;;5063258;28;20419;-82
2023/03/28 10:45:42;;;;;;;21.17;19.97;;;;;;;;;;5062970;28;20442;-81
2023/03/28 10:48:14;;;;;;;22.90;21.40;;;;;;;;;;5062625;28;20479;-81
2023/03/28 10:50:42;;;;;;;24.10;22.57;;;;;;;;;;5064182;28;20444;-81
2023/03/28 10:53:19;;;;;;;22.47;21.27;;;;;;;;;;5064300;28;20450;-82
2023/03/28 10:55:56;;;;;;;21.97;20.77;;;;;;;;;;5064776;28;20499;-82
2023/03/28 10:58:27;;;;;;;24.03;21.90;;;;;;;;;;5064628;28;20504;-81
2023/03/28 11:00:59;;;;;;;22.40;21.03;;;;;;;;;;5065097;28;20477;-82
2023/03/28 11:03:33;;;;;;;23.47;21.93;;;;;;;;;;5067589;28;20430;-82
2023/03/28 11:06:04;;;;;;;21.40;20.20;;;;;;;;;;5063545;28;20442;-81
2023/03/28 11:08:35;;;;;;;22.73;21.30;;;;;;;;;;5063023;28;20443;-82
2023/03/28 11:11:06;;;;;;;22.80;21.20;;;;;;;;;;5061025;28;20959;-82
2023/03/28 11:13:40;;;;;;;23.57;21.97;;;;;;;;;;5066100;28;20898;-82
2023/03/28 11:16:11;;;;;;;22.80;21.30;;;;;;;;;;5059266;28;20439;-81
2023/03/28 11:18:44;;;;;;;22.20;20.90;;;;;;;;;;5062405;28;20466;-81
2023/03/28 11:21:16;;;;;;;23.60;21.77;;;;;;;;;;5059903;28;20481;-81
2023/03/28 11:23:48;;;;;;;21.57;20.37;;;;;;;;;;5060461;28;20429;-81
2023/03/28 11:26:16;;;;;;;22.37;20.87;;;;;;;;;;5058951;28;20519;-81
2023/03/28 11:28:57;;;;;;;21.37;20.03;;;;;;;;;;5058023;28;20480;-81
2023/03/28 11:31:27;;;;;;;22.93;21.53;;;;;;;;;;5059076;28;20508;-81
2023/03/28 11:33:57;;;;;;;23.20;21.47;;;;;;;;;;5075347;28;20473;-81
2023/03/28 11:36:28;;;;;;;22.53;21.13;;;;;;;;;;5074773;28;20451;-82
2023/03/28 11:38:59;;;;;;;22.20;20.80;;;;;;;;;;5071320;28;20494;-82
2023/03/28 11:41:30;;;;;;;21.87;20.57;;;;;;;;;;5067922;28;20446;-81
2023/03/28 11:44:00;;;;;;;21.87;20.57;;;;;;;;;;5067294;28;20458;-82
2023/03/28 11:46:28;;;;;;;21.83;20.63;;;;;;;;;;5066357;28;20439;-81
2023/03/28 11:48:59;;;;;;;23.10;21.60;;;;;;;;;;5065394;28;20463;-82
2023/03/28 11:51:30;;;;;;;21.93;20.83;;;;;;;;;;5064438;28;20473;-81
2023/03/28 11:53:59;;;;;;;23.10;21.80;;;;;;;;;;5063424;28;20437;-81
2023/03/28 11:56:30;;;;;;;22.27;20.97;;;;;;;;;;5062407;28;20886;-81
2023/03/28 11:59:02;;;;;;;23.00;21.40;;;;;;;;;;5060451;28;20616;-81
2023/03/28 12:01:30;;;;;;;22.87;21.43;;;;;;;;;;5061290;28;20427;-81
2023/03/28 12:04:01;;;;;;;22.80;21.17;;;;;;;;;;5061530;28;20826;-81
2023/03/28 12:06:31;;;;;;;23.63;21.93;;;;;;;;;;5063824;28;20414;-81
2023/03/28 12:09:01;;;;;;;20.77;19.47;;;;;;;;;;5060166;28;20518;-80
2023/03/28 12:11:30;;;;;;;22.77;20.57;;;;;;;;;;5061697;28;20417;-81
2023/03/28 12:13:59;;;;;;;21.57;20.30;;;;;;;;;;5062575;28;20449;-81
2023/03/28 12:16:31;;;;;;;22.97;21.47;;;;;;;;;;5061387;28;20450;-80
2023/03/28 12:19:00;;;;;;;22.73;21.40;;;;;;;;;;5064171;28;20543;-81
2023/03/28 12:21:31;;;;;;;22.97;21.20;;;;;;;;;;5061817;28;20443;-81
2023/03/28 12:24:00;;;;;;;22.43;21.00;;;;;;;;;;5059883;28;20461;-81
2023/03/28 12:26:31;;;;;;;22.33;21.00;;;;;;;;;;5059311;28;20426;-81
2023/03/28 12:29:03;;;;;;;22.70;21.40;;;;;;;;;;5059547;28;20475;-81
2023/03/28 12:31:38;;;;;;;22.00;20.60;;;;;;;;;;5063106;28;20473;-81
2023/03/28 12:34:08;;;;;;;21.30;20.00;;;;;;;;;;5064028;28;20514;-81
2023/03/28 12:36:41;;;;;;;22.17;20.77;;;;;;;;;;5065088;28;20508;-81
2023/03/28 12:39:16;;;;;;;21.97;20.67;;;;;;;;;;5062747;28;20473;-81
2023/03/28 12:41:44;;;;;;;22.53;21.13;;;;;;;;;;5065760;28;20446;-81
2023/03/28 12:44:13;;;;;;;22.33;20.73;;;;;;;;;;5066957;28;20462;-82
2023/03/28 12:46:44;;;;;;;21.37;20.27;;;;;;;;;;5065634;28;20454;-81
2023/03/28 12:49:15;;;;;;;23.47;21.70;;;;;;;;;;5065953;28;20554;-81
2023/03/28 12:51:44;;;;;;;23.73;21.77;;;;;;;;;;5064847;28;20455;-83
2023/03/28 12:54:23;;;;;;;23.47;22.00;;;;;;;;;;5061866;28;20462;-81
2023/03/28 12:56:59;;;;;;;22.63;20.93;;;;;;;;;;5062169;28;20465;-82
2023/03/28 12:59:41;;;;;;;21.83;20.67;;;;;;;;;;5063105;28;20497;-82
2023/03/28 13:02:14;;;;;;;23.43;22.00;;;;;;;;;;5065745;28;20493;-82
2023/03/28 13:04:45;;;;;;;22.60;21.10;;;;;;;;;;5065001;28;20992;-81
2023/03/28 13:07:16;;;;;;;22.13;20.77;;;;;;;;;;5065394;28;20446;-82
2023/03/28 13:09:52;;;;;;;23.13;21.30;;;;;;;;;;5065417;28;20470;-81
2023/03/28 13:12:24;;;;;;;22.70;21.40;;;;;;;;;;5064776;28;20502;-81
2023/03/28 13:14:58;;;;;;;22.53;21.13;;;;;;;;;;5073505;28;20462;-81
2023/03/28 13:17:27;;;;;;;22.37;21.03;;;;;;;;;;5064194;28;20525;-81
2023/03/28 13:19:55;;;;;;;22.60;21.10;;;;;;;;;;5070348;28;20976;-81
2023/03/28 13:22:30;;;;;;;23.33;21.63;;;;;;;;;;5084317;28;20543;-80
2023/03/28 13:25:19;;;;;;;23.97;22.40;;;;;;;;;;5083990;28;20460;-81
2023/03/28 13:27:47;;;;;;;23.27;21.77;;;;;;;;;;5084049;28;20461;-81
2023/03/28 13:30:16;;;;;;;23.40;22.00;;;;;;;;;;5082654;28;20427;-81
2023/03/28 13:32:46;;;;;;;22.70;21.40;;;;;;;;;;5081750;28;20450;-81
2023/03/28 13:35:28;;;;;;;22.57;21.17;;;;;;;;;;5086188;28;20523;-81
2023/03/28 13:37:57;;;;;;;22.00;20.33;;;;;;;;;;5084907;28;20490;-81
2023/03/28 13:40:41;;;;;;;22.47;21.27;;;;;;;;;;5083719;28;20944;-81
2023/03/28 13:43:22;;;;;;;23.47;21.87;;;;;;;;;;5087081;28;20499;-81
2023/03/28 13:45:49;;;;;;;24.13;22.60;;;;;;;;;;5084852;28;20465;-81
2023/03/28 13:48:18;;;;;;;23.13;21.83;;;;;;;;;;5087104;28;20471;-81
2023/03/28 13:50:46;;;;;;;23.27;21.70;;;;;;;;;;5085121;28;20472;-81
2023/03/28 13:53:13;;;;;;;23.57;22.07;;;;;;;;;;5088466;28;20479;-81
2023/03/28 13:55:42;;;;;;;22.73;21.33;;;;;;;;;;5081926;28;20466;-81
2023/03/28 13:58:11;;;;;;;23.10;21.57;;;;;;;;;;5082129;28;20470;-81
2023/03/28 14:00:38;;;;;;;23.60;22.00;;;;;;;;;;5083521;28;20538;-81
2023/03/28 14:03:06;;;;;;;23.87;22.20;;;;;;;;;;5083428;28;20469;-81
2023/03/28 14:05:34;;;;;;;23.40;21.90;;;;;;;;;;5081872;28;20480;-82
2023/03/28 14:08:03;;;;;;;24.00;22.40;;;;;;;;;;5081390;28;20564;-81
2023/03/28 14:10:31;;;;;;;21.33;20.23;;;;;;;;;;5081661;28;20887;-81
2023/03/28 14:13:00;;;;;;;22.37;21.27;;;;;;;;;;5083130;28;20819;-81
2023/03/28 14:15:28;;;;;;;23.50;21.90;;;;;;;;;;5080885;28;20445;-82
2023/03/28 14:17:57;;;;;;;23.00;21.60;;;;;;;;;;5080714;28;20461;-81
2023/03/28 14:20:24;;;;;;;23.77;22.10;;;;;;;;;;5081432;28;20481;-81
2023/03/28 14:22:53;;;;;;;24.83;22.93;;;;;;;;;;5083347;28;20445;-82
2023/03/28 14:25:22;;;;;;;24.20;22.70;;;;;;;;;;5081672;28;20453;-81
2023/03/28 14:27:50;;;;;;;24.17;21.90;;;;;;;;;;5082275;28;20435;-81
2023/03/28 14:30:19;;;;;;;23.20;21.73;;;;;;;;;;5080654;28;20454;-81